createdAt,value
2022-12-15T00:00:15.318Z,85.12
2022-12-15T00:03:00.174Z,85.49
2022-12-15T00:05:49.939Z,84.75
2022-12-15T00:08:34.991Z,86.01
2022-12-15T00:11:20.869Z,84.73
2022-12-15T00:14:05.519Z,84.73
2022-12-15T00:16:50.897Z,84.83
2022-12-15T00:19:35.520Z,85.53
2022-12-15T00:22:20.252Z,85.64
2022-12-15T00:25:05.026Z,85.61
2022-12-15T00:27:49.737Z,84.61
2022-12-15T00:30:34.545Z,85.89
2022-12-15T00:33:24.740Z,85.60
2022-12-15T00:36:09.565Z,84.69
2022-12-15T00:38:44.839Z,85.98
2022-12-15T00:41:12.966Z,84.41
2022-12-15T00:43:39.367Z,84.11
2022-12-15T00:46:24.527Z,83.67
2022-12-15T00:48:50.944Z,84.60
2022-12-15T00:51:17.663Z,84.35
2022-12-15T00:54:04.068Z,84.68
2022-12-15T00:56:49.295Z,85.03
2022-12-15T00:59:34.970Z,84.51
2022-12-15T01:02:20.903Z,85.86
2022-12-15T01:05:06.326Z,84.78
2022-12-15T01:07:51.632Z,85.05
2022-12-15T01:10:37.833Z,86.22
2022-12-15T01:13:23.646Z,84.49
2022-12-15T01:16:08.449Z,85.33
2022-12-15T01:18:53.431Z,84.98
2022-12-15T01:21:24.328Z,85.58
2022-12-15T01:23:51.879Z,85.91
2022-12-15T01:26:18.191Z,84.50
2022-12-15T01:28:44.498Z,85.84
2022-12-15T01:31:12.177Z,84.30
2022-12-15T01:33:39.740Z,84.20
2022-12-15T01:36:06.339Z,84.38
2022-12-15T01:38:32.712Z,84.82
2022-12-15T01:41:02.467Z,84.82
2022-12-15T01:43:35.383Z,86.02
2022-12-15T01:46:05.655Z,84.61
2022-12-15T01:48:40.201Z,84.99
2022-12-15T01:51:34.147Z,85.29
2022-12-15T01:54:08.154Z,86.00
2022-12-15T01:56:42.315Z,85.68
2022-12-15T01:59:15.000Z,86.21
2022-12-15T02:01:41.511Z,84.69
2022-12-15T02:04:10.180Z,85.28
2022-12-15T02:06:36.506Z,85.88
2022-12-15T02:09:04.278Z,86.44
2022-12-15T02:11:40.207Z,85.70
2022-12-15T02:14:09.155Z,85.03
2022-12-15T02:16:57.146Z,85.64
2022-12-15T02:19:41.022Z,86.38
2022-12-15T02:22:24.282Z,86.74
2022-12-15T02:25:15.530Z,85.70
2022-12-15T02:27:54.275Z,85.69
2022-12-15T02:30:29.767Z,85.38
2022-12-15T02:33:29.512Z,85.56
2022-12-15T02:35:59.790Z,85.48
2022-12-15T02:38:35.512Z,86.13
2022-12-15T02:41:04.287Z,86.17
2022-12-15T02:43:35.721Z,85.94
2022-12-15T02:46:17.475Z,85.72
2022-12-15T02:48:59.832Z,86.39
2022-12-15T02:51:55.788Z,84.68
2022-12-15T02:54:34.741Z,84.85
2022-12-15T02:57:23.957Z,86.53
2022-12-15T02:59:58.075Z,85.59
2022-12-15T03:02:28.702Z,85.86
2022-12-15T03:04:55.645Z,86.08
2022-12-15T03:07:24.707Z,85.40
2022-12-15T03:09:51.955Z,86.17
2022-12-15T03:12:18.262Z,87.00
2022-12-15T03:14:44.558Z,86.72
2022-12-15T03:17:10.859Z,86.80
2022-12-15T03:19:37.169Z,85.36
2022-12-15T03:22:04.182Z,86.50
2022-12-15T03:24:30.552Z,86.92
2022-12-15T03:26:56.855Z,85.78
2022-12-15T03:29:23.264Z,87.06
2022-12-15T03:31:50.168Z,85.97
2022-12-15T03:34:17.014Z,86.88
2022-12-15T03:36:43.555Z,86.25
2022-12-15T03:39:10.103Z,86.08
2022-12-15T03:41:36.408Z,85.14
2022-12-15T03:44:02.992Z,84.37
2022-12-15T03:46:29.402Z,85.46
2022-12-15T03:48:55.825Z,84.52
2022-12-15T03:51:22.129Z,85.27
2022-12-15T03:53:49.201Z,85.30
2022-12-15T03:56:16.612Z,86.01
2022-12-15T03:58:42.964Z,85.54
2022-12-15T04:01:22.944Z,85.88
2022-12-15T04:03:49.459Z,85.36
2022-12-15T04:06:15.801Z,85.99
2022-12-15T04:08:42.139Z,85.02
2022-12-15T04:11:08.425Z,86.06
2022-12-15T04:13:34.920Z,85.11
2022-12-15T04:16:02.664Z,84.95
2022-12-15T04:18:29.043Z,85.29
2022-12-15T04:20:55.420Z,85.59
2022-12-15T04:23:21.980Z,85.34
2022-12-15T04:26:07.180Z,85.87
2022-12-15T04:28:51.858Z,85.22
2022-12-15T04:31:44.681Z,85.47
2022-12-15T04:34:33.336Z,86.57
2022-12-15T04:37:18.124Z,85.50
2022-12-15T04:40:07.344Z,86.29
2022-12-15T04:42:53.719Z,85.13
2022-12-15T04:45:42.488Z,85.72
2022-12-15T04:48:28.035Z,84.72
2022-12-15T04:51:13.240Z,85.11
2022-12-15T04:53:58.562Z,84.76
2022-12-15T04:56:43.493Z,85.93
2022-12-15T04:59:28.315Z,85.13
2022-12-15T05:02:13.069Z,85.46
2022-12-15T05:04:58.182Z,84.66
2022-12-15T05:07:43.903Z,85.59
2022-12-15T05:10:29.228Z,84.91
2022-12-15T05:13:13.984Z,85.20
2022-12-15T05:15:59.001Z,85.08
2022-12-15T05:18:43.977Z,86.25
2022-12-15T05:21:28.856Z,84.75
2022-12-15T05:24:13.605Z,84.91
2022-12-15T05:26:58.361Z,85.83
2022-12-15T05:29:42.999Z,85.54
2022-12-15T05:32:09.355Z,87.02
2022-12-15T05:34:37.209Z,86.46
2022-12-15T05:37:05.911Z,86.46
2022-12-15T05:39:32.583Z,85.22
2022-12-15T05:41:59.119Z,84.96
2022-12-15T05:44:26.602Z,85.74
2022-12-15T05:46:53.544Z,85.27
2022-12-15T05:49:20.440Z,85.33
2022-12-15T05:51:47.849Z,84.92
2022-12-15T05:54:17.267Z,86.01
2022-12-15T05:56:43.998Z,85.11
2022-12-15T05:59:10.803Z,85.38
2022-12-15T06:01:37.219Z,84.69
2022-12-15T06:04:04.269Z,84.19
2022-12-15T06:06:30.639Z,84.28
2022-12-15T06:08:57.200Z,84.14
2022-12-15T06:11:23.652Z,83.73
2022-12-15T06:13:50.244Z,84.20
2022-12-15T06:16:19.702Z,83.69
2022-12-15T06:18:50.412Z,84.18
2022-12-15T06:21:19.372Z,83.80
2022-12-15T06:23:46.734Z,83.62
2022-12-15T06:26:21.051Z,84.04
2022-12-15T06:28:48.685Z,83.28
2022-12-15T06:31:17.689Z,82.58
2022-12-15T06:33:44.194Z,82.38
2022-12-15T06:36:15.369Z,82.70
2022-12-15T06:38:45.145Z,83.40
2022-12-15T06:41:19.231Z,82.93
2022-12-15T06:43:52.995Z,83.81
2022-12-15T06:46:20.302Z,83.80
2022-12-15T06:48:47.431Z,83.29
2022-12-15T06:51:17.034Z,83.02
2022-12-15T06:53:48.628Z,83.32
2022-12-15T06:56:23.331Z,83.46
2022-12-15T06:58:54.370Z,83.07
2022-12-15T07:01:22.865Z,83.71
2022-12-15T07:03:49.454Z,82.86
2022-12-15T07:06:16.698Z,82.97
2022-12-15T07:08:44.983Z,83.04
2022-12-15T07:11:12.406Z,84.32
2022-12-15T07:13:39.839Z,83.74
2022-12-15T07:16:07.869Z,83.34
2022-12-15T07:18:34.320Z,83.71
2022-12-15T07:21:06.507Z,84.26
2022-12-15T07:23:53.684Z,84.80
2022-12-15T07:26:20.063Z,84.51
2022-12-15T07:28:46.385Z,84.27
2022-12-15T07:31:13.034Z,84.15
2022-12-15T07:33:39.683Z,83.38
2022-12-15T07:36:08.139Z,83.01
2022-12-15T07:38:35.338Z,84.10
2022-12-15T07:41:03.878Z,83.53
2022-12-15T07:43:31.595Z,82.98
2022-12-15T07:45:58.915Z,84.54
2022-12-15T07:48:27.011Z,83.31
2022-12-15T07:51:02.883Z,83.33
2022-12-15T07:53:34.987Z,83.20
2022-12-15T07:56:10.118Z,84.29
2022-12-15T07:58:37.365Z,84.08
2022-12-15T08:01:06.800Z,84.57
2022-12-15T08:03:34.457Z,83.32
2022-12-15T08:06:09.985Z,84.57
2022-12-15T08:08:36.804Z,83.89
2022-12-15T08:11:10.147Z,83.59
2022-12-15T08:14:02.087Z,84.59
2022-12-15T08:16:24.025Z,84.20
2022-12-15T08:18:50.441Z,84.49
2022-12-15T08:21:17.208Z,84.85
2022-12-15T08:23:43.518Z,84.62
2022-12-15T08:26:13.430Z,84.69
2022-12-15T08:28:40.989Z,84.34
2022-12-15T08:31:10.349Z,84.63
2022-12-15T08:33:37.719Z,84.84
2022-12-15T08:36:08.105Z,84.19
2022-12-15T08:38:36.229Z,83.99
2022-12-15T08:41:09.767Z,84.18
2022-12-15T08:43:41.120Z,84.12
2022-12-15T08:46:12.834Z,84.24
2022-12-15T08:48:39.505Z,84.53
2022-12-15T08:51:06.344Z,84.43
2022-12-15T08:53:32.771Z,83.93
2022-12-15T08:56:07.660Z,84.26
2022-12-15T08:58:34.413Z,84.49
2022-12-15T09:01:06.879Z,84.86
2022-12-15T09:03:34.954Z,84.61
2022-12-15T09:06:13.102Z,84.03
2022-12-15T09:08:39.661Z,84.41
2022-12-15T09:11:06.207Z,84.00
2022-12-15T09:13:33.161Z,83.72
2022-12-15T09:16:10.745Z,83.10
2022-12-15T09:18:37.857Z,84.54
2022-12-15T09:21:06.992Z,83.56
2022-12-15T09:23:35.493Z,83.92
2022-12-15T09:26:07.881Z,84.04
2022-12-15T09:28:34.571Z,84.34
2022-12-15T09:31:08.076Z,83.48
2022-12-15T09:33:35.185Z,82.54
2022-12-15T09:36:03.400Z,82.46
2022-12-15T09:38:30.459Z,82.37
2022-12-15T09:40:57.365Z,82.18
2022-12-15T09:43:35.767Z,83.16
2022-12-15T09:46:13.255Z,81.98
2022-12-15T09:48:45.183Z,82.70
2022-12-15T09:51:16.339Z,83.29
2022-12-15T09:53:54.863Z,81.97
2022-12-15T09:56:31.077Z,81.71
2022-12-15T09:59:05.226Z,81.67
2022-12-15T10:01:43.979Z,81.57
2022-12-15T10:04:37.690Z,81.65
2022-12-15T10:07:08.516Z,79.16
2022-12-15T10:09:37.195Z,79.59
2022-12-15T10:12:12.153Z,79.39
2022-12-15T10:14:43.974Z,80.72
2022-12-15T10:17:26.299Z,80.88
2022-12-15T10:20:20.597Z,79.89
2022-12-15T10:22:50.481Z,80.66
2022-12-15T10:25:29.830Z,79.19
2022-12-15T10:28:31.784Z,79.59
2022-12-15T10:31:02.231Z,78.45
2022-12-15T10:33:34.848Z,78.95
2022-12-15T10:36:01.981Z,77.94
2022-12-15T10:38:45.263Z,77.94
2022-12-15T10:41:14.361Z,78.15
2022-12-15T10:43:43.690Z,77.50
2022-12-15T10:46:15.000Z,79.03
2022-12-15T10:48:43.943Z,78.33
2022-12-15T10:51:32.932Z,79.09
2022-12-15T10:54:10.568Z,79.96
2022-12-15T10:56:53.365Z,79.73
2022-12-15T10:59:33.465Z,79.57
2022-12-15T11:02:24.255Z,78.53
2022-12-15T11:05:16.507Z,79.03
2022-12-15T11:07:49.456Z,79.05
2022-12-15T11:10:27.501Z,78.66
2022-12-15T11:13:05.760Z,78.51
2022-12-15T11:15:32.133Z,77.80
2022-12-15T11:18:14.811Z,77.27
2022-12-15T11:20:45.410Z,76.79
2022-12-15T11:23:33.177Z,76.59
2022-12-15T11:26:13.585Z,76.47
2022-12-15T11:28:50.915Z,76.22
2022-12-15T11:31:32.774Z,76.16
2022-12-15T11:33:59.313Z,75.49
2022-12-15T11:36:52.068Z,75.05
2022-12-15T11:39:37.428Z,74.24
2022-12-15T11:42:13.451Z,74.25
2022-12-15T11:45:09.319Z,73.48
2022-12-15T11:47:40.702Z,73.50
2022-12-15T11:50:38.207Z,73.09
2022-12-15T11:53:13.411Z,72.60
2022-12-15T11:55:42.947Z,71.71
2022-12-15T11:58:34.730Z,71.62
2022-12-15T12:01:28.704Z,71.18
2022-12-15T12:04:06.471Z,70.84
2022-12-15T12:06:43.023Z,70.49
2022-12-15T12:09:29.501Z,71.98
2022-12-15T12:12:14.430Z,71.79
2022-12-15T12:14:57.686Z,72.02
2022-12-15T12:17:43.146Z,70.18
2022-12-15T12:20:18.306Z,70.98
2022-12-15T12:23:05.452Z,72.34
2022-12-15T12:25:41.545Z,72.51
2022-12-15T12:28:17.719Z,71.18
2022-12-15T12:30:50.334Z,72.58
2022-12-15T12:33:47.173Z,72.59
2022-12-15T12:36:15.918Z,73.13
2022-12-15T12:38:50.803Z,73.42
2022-12-15T12:41:40.298Z,73.03
2022-12-15T12:44:24.514Z,73.93
2022-12-15T12:46:55.527Z,72.64
2022-12-15T12:49:33.196Z,72.25
2022-12-15T12:52:04.100Z,72.77
2022-12-15T12:54:36.510Z,71.86
2022-12-15T12:57:30.526Z,72.84
2022-12-15T13:00:01.102Z,72.87
2022-12-15T13:02:27.611Z,72.96
2022-12-15T13:04:57.241Z,72.42
2022-12-15T13:07:40.224Z,72.34
2022-12-15T13:10:09.539Z,72.02
2022-12-15T13:13:01.882Z,72.89
2022-12-15T13:15:31.253Z,72.69
2022-12-15T13:18:06.831Z,72.99
2022-12-15T13:20:36.176Z,72.87
2022-12-15T13:23:41.429Z,72.50
2022-12-15T13:26:08.348Z,72.75
2022-12-15T13:28:34.704Z,72.05
2022-12-15T13:31:16.745Z,72.14
2022-12-15T13:33:49.288Z,71.32
2022-12-15T13:36:39.975Z,72.58
2022-12-15T13:39:12.604Z,71.94
2022-12-15T13:42:07.565Z,71.94
2022-12-15T13:44:46.614Z,71.10
2022-12-15T13:47:29.823Z,72.03
2022-12-15T13:50:07.405Z,72.44
2022-12-15T13:53:17.226Z,71.18
2022-12-15T13:55:39.214Z,71.91
2022-12-15T13:58:16.311Z,71.50
2022-12-15T14:00:55.394Z,70.69
2022-12-15T14:03:23.427Z,71.55
2022-12-15T14:05:55.637Z,72.08
2022-12-15T14:08:24.471Z,70.12
2022-12-15T14:10:58.087Z,71.13
2022-12-15T14:13:33.658Z,71.20
2022-12-15T14:16:19.389Z,72.60
2022-12-15T14:19:04.050Z,72.10
2022-12-15T14:21:30.454Z,72.46
2022-12-15T14:24:28.887Z,73.06
2022-12-15T14:26:44.210Z,72.90
2022-12-15T14:29:12.888Z,73.74
2022-12-15T14:31:40.487Z,74.31
2022-12-15T14:34:13.843Z,74.97
2022-12-15T14:36:43.031Z,74.41
2022-12-15T14:39:32.953Z,74.70
2022-12-15T14:42:01.366Z,74.47
2022-12-15T14:44:37.153Z,74.56
2022-12-15T14:47:08.404Z,74.79
2022-12-15T14:49:42.532Z,75.22
2022-12-15T14:52:27.746Z,75.06
2022-12-15T14:54:57.341Z,75.46
2022-12-15T14:57:27.666Z,75.22
2022-12-15T14:59:54.524Z,75.45
2022-12-15T15:02:26.860Z,75.51
2022-12-15T15:04:59.581Z,76.04
2022-12-15T15:07:28.749Z,76.02
2022-12-15T15:09:55.532Z,75.43
2022-12-15T15:12:24.833Z,75.72
2022-12-15T15:14:58.979Z,75.70
2022-12-15T15:17:43.657Z,75.11
2022-12-15T15:20:21.531Z,74.98
2022-12-15T15:23:08.471Z,75.28
2022-12-15T15:25:56.438Z,75.78
2022-12-15T15:28:28.234Z,75.52
2022-12-15T15:30:57.792Z,76.39
2022-12-15T15:33:25.206Z,76.42
2022-12-15T15:35:55.261Z,76.10
2022-12-15T15:38:32.185Z,76.28
2022-12-15T15:41:14.715Z,76.28
2022-12-15T15:43:42.047Z,76.69
2022-12-15T15:46:13.038Z,76.00
2022-12-15T15:48:44.731Z,76.40
2022-12-15T15:51:11.162Z,75.98
2022-12-15T15:53:38.667Z,76.96
2022-12-15T15:56:07.063Z,77.57
2022-12-15T15:58:35.333Z,76.82
2022-12-15T16:01:04.765Z,76.93
2022-12-15T16:03:35.216Z,77.25
2022-12-15T16:06:06.383Z,77.79
2022-12-15T16:08:36.650Z,78.25
2022-12-15T16:11:03.170Z,77.04
2022-12-15T16:13:29.571Z,78.53
2022-12-15T16:15:56.129Z,77.77
2022-12-15T16:18:22.601Z,78.20
2022-12-15T16:20:51.522Z,76.84
2022-12-15T16:23:21.278Z,77.67
2022-12-15T16:25:52.730Z,78.28
2022-12-15T16:28:24.576Z,77.94
2022-12-15T16:30:51.100Z,77.61
2022-12-15T16:33:18.074Z,77.28
2022-12-15T16:35:47.245Z,77.99
2022-12-15T16:38:19.355Z,77.73
2022-12-15T16:40:45.847Z,79.63
2022-12-15T16:43:15.988Z,78.04
2022-12-15T16:45:47.155Z,79.53
2022-12-15T16:48:14.416Z,78.02
2022-12-15T16:50:43.557Z,79.61
2022-12-15T16:53:18.623Z,79.44
2022-12-15T16:55:45.381Z,78.77
2022-12-15T16:58:15.621Z,80.12
2022-12-15T17:00:42.695Z,79.81
2022-12-15T17:03:13.868Z,79.13
2022-12-15T17:05:41.844Z,79.42
2022-12-15T17:08:18.141Z,79.29
2022-12-15T17:10:45.986Z,80.74
2022-12-15T17:13:19.693Z,80.56
2022-12-15T17:15:46.666Z,80.49
2022-12-15T17:18:14.770Z,80.10
2022-12-15T17:20:42.151Z,80.12
2022-12-15T17:23:15.913Z,80.19
2022-12-15T17:28:33.212Z,80.54
2022-12-15T17:31:00.398Z,80.50
2022-12-15T17:33:29.789Z,80.71
2022-12-15T17:36:01.043Z,80.67
2022-12-15T17:38:27.790Z,80.28
2022-12-15T17:40:56.342Z,80.67
2022-12-15T17:43:28.149Z,81.25
2022-12-15T17:45:58.384Z,82.08
2022-12-15T17:48:25.223Z,82.34
2022-12-15T17:50:53.212Z,82.79
2022-12-15T17:53:22.114Z,82.26
2022-12-15T17:55:49.661Z,82.18
2022-12-15T17:58:21.612Z,81.60
2022-12-15T18:00:51.641Z,82.64
2022-12-15T18:03:19.133Z,82.70
2022-12-15T18:05:47.739Z,82.03
2022-12-15T18:08:17.681Z,82.39
2022-12-15T18:10:45.810Z,82.97
2022-12-15T18:13:18.618Z,82.80
2022-12-15T18:15:46.545Z,83.05
2022-12-15T18:18:13.890Z,82.65
2022-12-15T18:20:40.891Z,83.34
2022-12-15T18:23:16.235Z,83.78
2022-12-15T18:25:43.979Z,83.78
2022-12-15T18:28:27.690Z,83.41
2022-12-15T18:31:12.640Z,83.11
2022-12-15T18:33:39.043Z,83.17
2022-12-15T18:36:05.909Z,83.54
2022-12-15T18:38:32.287Z,83.70
2022-12-15T18:41:00.110Z,84.61
2022-12-15T18:43:31.035Z,83.85
2022-12-15T18:45:58.014Z,83.70
2022-12-15T18:48:25.400Z,83.88
2022-12-15T18:50:53.320Z,83.98
2022-12-15T18:53:32.399Z,83.73
2022-12-15T18:56:05.636Z,84.41
2022-12-15T18:58:34.763Z,84.60
2022-12-15T19:01:02.859Z,84.57
2022-12-15T19:03:30.723Z,84.04
2022-12-15T19:06:34.706Z,84.54
2022-12-15T19:09:07.529Z,84.21
2022-12-15T19:11:34.482Z,83.87
2022-12-15T19:14:03.023Z,83.80
2022-12-15T19:16:52.981Z,83.64
2022-12-15T19:19:38.081Z,84.03
2022-12-15T19:22:29.726Z,85.14
2022-12-15T19:24:56.125Z,84.42
2022-12-15T19:27:26.101Z,84.33
2022-12-15T19:29:54.153Z,83.87
2022-12-15T19:32:21.434Z,84.22
2022-12-15T19:34:47.896Z,84.04
2022-12-15T19:37:22.746Z,84.32
2022-12-15T19:39:49.528Z,83.90
2022-12-15T19:42:23.926Z,84.20
2022-12-15T19:44:50.248Z,84.31
2022-12-15T19:47:16.580Z,84.73
2022-12-15T19:49:43.386Z,84.71
2022-12-15T19:52:17.926Z,84.70
2022-12-15T19:54:47.014Z,85.00
2022-12-15T19:57:15.689Z,84.80
2022-12-15T19:59:42.127Z,84.87
2022-12-15T20:02:16.546Z,84.47
2022-12-15T20:04:43.324Z,84.43
2022-12-15T20:07:22.201Z,84.85
2022-12-15T20:09:48.551Z,85.21
2022-12-15T20:12:22.558Z,85.10
2022-12-15T20:14:48.983Z,85.05
2022-12-15T20:17:15.417Z,84.38
2022-12-15T20:19:42.055Z,84.14
2022-12-15T20:22:17.219Z,85.41
2022-12-15T20:24:45.210Z,84.62
2022-12-15T20:27:16.612Z,84.62
2022-12-15T20:29:43.932Z,85.33
2022-12-15T20:32:19.365Z,85.83
2022-12-15T20:34:46.471Z,85.63
2022-12-15T20:37:18.512Z,85.17
2022-12-15T20:39:44.901Z,84.97
2022-12-15T20:42:15.454Z,84.96
2022-12-15T20:44:41.911Z,85.60
2022-12-15T20:47:20.852Z,85.15
2022-12-15T20:49:49.610Z,84.95
2022-12-15T20:52:22.647Z,84.60
2022-12-15T20:54:50.825Z,85.00
2022-12-15T20:57:18.700Z,85.21
2022-12-15T20:59:45.416Z,85.57
2022-12-15T21:02:23.665Z,85.38
2022-12-15T21:04:50.935Z,83.85
2022-12-15T21:07:17.367Z,83.86
2022-12-15T21:09:43.743Z,83.99
2022-12-15T21:12:18.849Z,84.74
2022-12-15T21:14:45.684Z,85.27
2022-12-15T21:17:22.226Z,85.58
2022-12-15T21:19:49.423Z,85.29
2022-12-15T21:22:23.587Z,85.94
2022-12-15T21:24:52.996Z,85.05
2022-12-15T21:27:20.836Z,84.84
2022-12-15T21:29:52.264Z,84.71
2022-12-15T21:32:19.570Z,85.35
2022-12-15T21:34:45.936Z,84.64
2022-12-15T21:37:23.856Z,84.90
2022-12-15T21:39:50.616Z,84.81
2022-12-15T21:42:18.867Z,85.18
2022-12-15T21:44:45.492Z,86.15
2022-12-15T21:47:50.032Z,84.75
2022-12-15T21:50:19.154Z,85.00
2022-12-15T21:52:45.850Z,84.83
2022-12-15T21:55:16.947Z,85.88
2022-12-15T21:57:43.337Z,85.22
2022-12-15T22:00:12.055Z,84.97
2022-12-15T22:02:38.430Z,85.12
2022-12-15T22:05:16.425Z,85.19
2022-12-15T22:07:42.834Z,85.07
2022-12-15T22:10:09.338Z,84.77
2022-12-15T22:12:36.172Z,85.57
2022-12-15T22:15:03.622Z,85.28
2022-12-15T22:17:29.950Z,85.10
2022-12-15T22:19:56.297Z,85.62
2022-12-15T22:22:24.718Z,85.85
2022-12-15T22:24:54.685Z,85.00
2022-12-15T22:27:22.588Z,86.20
2022-12-15T22:29:50.210Z,84.47
2022-12-15T22:32:17.110Z,85.68
2022-12-15T22:34:43.554Z,85.06
2022-12-15T22:37:10.127Z,86.05
2022-12-15T22:39:36.448Z,85.15
2022-12-15T22:42:04.288Z,85.56
2022-12-15T22:44:33.526Z,85.56
2022-12-15T22:47:02.267Z,85.64
2022-12-15T22:49:35.709Z,84.63
2022-12-15T22:52:02.207Z,84.83
2022-12-15T22:54:30.712Z,85.32
2022-12-15T22:57:03.764Z,85.23
2022-12-15T22:59:42.641Z,86.17
2022-12-15T23:02:10.105Z,85.02
2022-12-15T23:04:36.525Z,85.57
2022-12-15T23:07:06.832Z,84.59
2022-12-15T23:09:33.243Z,84.94
2022-12-15T23:11:59.604Z,84.96
2022-12-15T23:14:44.539Z,84.91
2022-12-15T23:17:11.903Z,85.88
2022-12-15T23:19:43.431Z,85.59
2022-12-15T23:22:09.895Z,85.58
2022-12-15T23:24:36.219Z,84.84
2022-12-15T23:27:02.614Z,84.64
2022-12-15T23:29:29.002Z,86.11
2022-12-15T23:31:55.339Z,85.22
2022-12-15T23:34:21.675Z,85.33
2022-12-15T23:36:48.061Z,85.75
2022-12-15T23:39:14.523Z,84.86
2022-12-15T23:41:42.300Z,85.62
2022-12-15T23:44:08.726Z,86.01
2022-12-15T23:46:35.234Z,84.42
2022-12-15T23:49:01.594Z,84.45
2022-12-15T23:51:27.983Z,85.97
2022-12-15T23:53:54.629Z,85.68
2022-12-15T23:56:23.796Z,86.00
2022-12-15T23:58:57.689Z,85.24
